Terminal Aerodrome Forecast
Issued by NWS Northern Indiana

Home | Current Version | Previous Version | Text Only | Print | Product List | Glossary On
Versions: 1 2 3 4 5 6 7 8 9 10 11 12 13
000
FTUS43 KIWX 041733
TAFFWA
TAF
KFWA 041733Z 0418/0518 25005KT P6SM VCTS BKN040CB
     FM041930 25007KT P6SM SCT040
      TEMPO 0420/0424 5SM TSRA BKN040CB
     FM051000 00000KT 4SM BR SCT007 BKN040
     FM051400 21005KT P6SM SCT040=

USA.gov is the U.S. government's official web portal to all federal, state and local government web resources and services.